Time;durP1;ratioP1;P1;durP2;ratioP2;P2;SDS_P1;SDS_P2;PMS_P1;PMS_P2;Temp;Humidity;BMP_temperature;BMP_pressure;BME280_temperature;BME280_humidity;BME280_pressure;Samples;Min_cycle;Max_cycle;Signal;HPM_P1;HPM_P2
2022/04/12 00:00:58;;;;;;;5.72;2.70;;;;;;;;;;4962803;28;20046;-81
2022/04/12 00:03:24;;;;;;;8.10;2.97;;;;;;;;;;4961646;28;20031;-81
2022/04/12 00:05:51;;;;;;;6.25;3.05;;;;;;;;;;4947179;28;20043;-81
2022/04/12 00:08:17;;;;;;;8.25;3.35;;;;;;;;;;4943853;28;20529;-81
2022/04/12 00:10:44;;;;;;;6.95;2.55;;;;;;;;;;4960888;28;20037;-81
2022/04/12 00:13:10;;;;;;;8.65;2.92;;;;;;;;;;4964225;28;20030;-81
2022/04/12 00:15:36;;;;;;;9.20;3.38;;;;;;;;;;4948821;28;20094;-81
2022/04/12 00:20:47;;;;;;;8.05;3.58;;;;;;;;;;4963741;28;20048;-81
2022/04/12 00:23:14;;;;;;;10.43;3.33;;;;;;;;;;4951025;28;20395;-80
2022/04/12 00:25:42;;;;;;;5.65;3.33;;;;;;;;;;4966373;28;20062;-81
2022/04/12 00:28:08;;;;;;;7.18;2.67;;;;;;;;;;4952377;28;20030;-81
2022/04/12 00:30:35;;;;;;;6.50;3.40;;;;;;;;;;4949351;28;20070;-81
2022/04/12 00:33:00;;;;;;;7.22;3.75;;;;;;;;;;4967488;28;20497;-81
2022/04/12 00:35:27;;;;;;;10.10;3.90;;;;;;;;;;4946849;28;20039;-81
2022/04/12 00:37:53;;;;;;;6.80;3.22;;;;;;;;;;4965462;28;20026;-82
2022/04/12 00:40:20;;;;;;;11.20;3.42;;;;;;;;;;4944759;28;20042;-81
2022/04/12 00:42:47;;;;;;;5.57;3.38;;;;;;;;;;4953364;28;20113;-81
2022/04/12 00:45:13;;;;;;;15.02;4.20;;;;;;;;;;4950292;28;20564;-81
2022/04/12 00:47:39;;;;;;;9.95;3.70;;;;;;;;;;4984581;28;20293;-81
2022/04/12 00:50:06;;;;;;;6.28;3.13;;;;;;;;;;4985795;28;20050;-82
2022/04/12 00:52:36;;;;;;;13.07;3.28;;;;;;;;;;4983414;28;20030;-81
2022/04/12 00:55:03;;;;;;;19.40;4.07;;;;;;;;;;4964572;28;20026;-81
2022/04/12 00:57:29;;;;;;;7.60;3.80;;;;;;;;;;4966910;28;20041;-81
2022/04/12 00:59:56;;;;;;;8.93;3.50;;;;;;;;;;4980824;28;20710;-82
2022/04/12 01:02:22;;;;;;;9.35;3.45;;;;;;;;;;4975457;28;20029;-81
2022/04/12 01:04:48;;;;;;;9.43;3.88;;;;;;;;;;4982509;28;20038;-81
2022/04/12 01:07:14;;;;;;;7.28;3.33;;;;;;;;;;4979196;28;20027;-81
2022/04/12 01:09:40;;;;;;;9.67;4.33;;;;;;;;;;4967125;28;20035;-81
2022/04/12 01:12:09;;;;;;;8.07;3.53;;;;;;;;;;4978636;28;20034;-81
2022/04/12 01:14:35;;;;;;;10.18;3.53;;;;;;;;;;4985309;28;20014;-81
2022/04/12 01:17:04;;;;;;;7.97;3.67;;;;;;;;;;4971961;28;20022;-81
2022/04/12 01:19:30;;;;;;;7.45;3.75;;;;;;;;;;4967223;28;20734;-81
2022/04/12 01:22:02;;;;;;;14.38;4.15;;;;;;;;;;4970947;28;20117;-81
2022/04/12 01:24:29;;;;;;;16.30;3.88;;;;;;;;;;4967759;28;20034;-81
2022/04/12 01:26:55;;;;;;;9.93;5.22;;;;;;;;;;4981096;28;20062;-82
2022/04/12 01:29:23;;;;;;;9.45;3.88;;;;;;;;;;4981250;28;20030;-81
2022/04/12 01:31:49;;;;;;;10.35;3.97;;;;;;;;;;4966155;28;20034;-81
2022/04/12 01:34:15;;;;;;;7.57;3.72;;;;;;;;;;4966831;28;20331;-81
2022/04/12 01:36:41;;;;;;;8.57;4.00;;;;;;;;;;4972047;28;20022;-81
2022/04/12 01:39:07;;;;;;;7.53;4.05;;;;;;;;;;4986621;28;20045;-81
2022/04/12 01:41:33;;;;;;;8.38;3.67;;;;;;;;;;4962317;28;20030;-81
2022/04/12 01:43:59;;;;;;;9.25;4.45;;;;;;;;;;4975925;28;20038;-81
2022/04/12 01:46:31;;;;;;;12.10;4.10;;;;;;;;;;4990306;28;20081;-81
2022/04/12 01:48:58;;;;;;;7.95;4.05;;;;;;;;;;4970932;28;20038;-81
2022/04/12 01:51:24;;;;;;;6.95;3.92;;;;;;;;;;4986805;28;20048;-81
2022/04/12 01:53:50;;;;;;;10.25;4.07;;;;;;;;;;4967117;28;20073;-81
2022/04/12 01:56:16;;;;;;;10.07;3.83;;;;;;;;;;4986652;28;20034;-81
2022/04/12 01:58:42;;;;;;;13.90;4.20;;;;;;;;;;4982551;28;20760;-81
2022/04/12 02:01:09;;;;;;;11.90;4.20;;;;;;;;;;4968622;28;20065;-81
2022/04/12 02:03:35;;;;;;;7.03;4.10;;;;;;;;;;4970151;28;20106;-81
2022/04/12 02:06:01;;;;;;;12.52;5.30;;;;;;;;;;4971075;28;20746;-81
2022/04/12 02:08:27;;;;;;;14.07;4.25;;;;;;;;;;4965775;28;20042;-81
2022/04/12 02:10:53;;;;;;;10.13;4.75;;;;;;;;;;4983607;28;20446;-81
2022/04/12 02:13:19;;;;;;;13.27;5.65;;;;;;;;;;4967331;28;20105;-81
2022/04/12 02:15:45;;;;;;;14.30;5.68;;;;;;;;;;4969322;28;20030;-82
2022/04/12 02:18:11;;;;;;;8.98;5.28;;;;;;;;;;4985757;28;20026;-81
2022/04/12 02:20:37;;;;;;;9.93;5.00;;;;;;;;;;4968122;28;20189;-81
2022/04/12 02:23:03;;;;;;;10.15;4.88;;;;;;;;;;4977503;28;20140;-81
2022/04/12 02:25:29;;;;;;;12.70;5.90;;;;;;;;;;4965358;28;20105;-81
2022/04/12 02:27:55;;;;;;;10.23;4.97;;;;;;;;;;4964328;28;20552;-81
2022/04/12 02:30:21;;;;;;;12.50;5.72;;;;;;;;;;4970802;28;20026;-81
2022/04/12 02:32:47;;;;;;;13.35;4.72;;;;;;;;;;4967108;28;20413;-81
2022/04/12 02:35:13;;;;;;;12.73;5.20;;;;;;;;;;4973019;28;20037;-82
2022/04/12 02:37:39;;;;;;;9.25;4.90;;;;;;;;;;4962575;28;20038;-82
2022/04/12 02:40:05;;;;;;;12.20;5.63;;;;;;;;;;4967431;28;20107;-82
2022/04/12 02:42:31;;;;;;;17.80;5.65;;;;;;;;;;4985338;28;20041;-82
2022/04/12 02:44:57;;;;;;;15.95;5.75;;;;;;;;;;4969528;28;20031;-81
2022/04/12 02:47:25;;;;;;;12.52;5.10;;;;;;;;;;4966623;28;20682;-82
2022/04/12 02:49:51;;;;;;;18.67;6.43;;;;;;;;;;4963724;28;20081;-81
2022/04/12 02:52:17;;;;;;;12.13;5.78;;;;;;;;;;4986043;28;20411;-81
2022/04/12 02:54:43;;;;;;;9.02;4.97;;;;;;;;;;4962124;28;20043;-82
2022/04/12 02:57:09;;;;;;;10.75;5.82;;;;;;;;;;4985024;28;20058;-81
2022/04/12 02:59:35;;;;;;;17.38;6.18;;;;;;;;;;4982972;28;20042;-81
2022/04/12 03:02:01;;;;;;;11.77;5.80;;;;;;;;;;4967938;28;20034;-81
2022/04/12 03:04:35;;;;;;;12.48;5.75;;;;;;;;;;4980949;28;20041;-81
2022/04/12 03:07:00;;;;;;;9.88;5.70;;;;;;;;;;4983847;28;20034;-81
2022/04/12 03:09:26;;;;;;;16.17;6.53;;;;;;;;;;4983351;28;20487;-81
2022/04/12 03:11:52;;;;;;;8.68;5.50;;;;;;;;;;4986213;28;20038;-81
2022/04/12 03:14:18;;;;;;;16.75;5.80;;;;;;;;;;4982384;28;20163;-81
2022/04/12 03:16:44;;;;;;;15.43;5.50;;;;;;;;;;4965642;28;20026;-81
2022/04/12 03:19:11;;;;;;;11.95;6.07;;;;;;;;;;4961536;28;20038;-81
2022/04/12 03:21:36;;;;;;;12.05;5.70;;;;;;;;;;4982643;28;20034;-81
2022/04/12 03:24:03;;;;;;;9.85;5.32;;;;;;;;;;4960570;28;20061;-81
2022/04/12 03:26:29;;;;;;;13.10;6.03;;;;;;;;;;4967868;28;20399;-81
2022/04/12 03:28:56;;;;;;;17.30;6.70;;;;;;;;;;4977758;28;20061;-81
2022/04/12 03:31:22;;;;;;;14.23;6.80;;;;;;;;;;4963416;28;20114;-81
2022/04/12 03:33:48;;;;;;;9.13;5.78;;;;;;;;;;4965531;28;20164;-81
2022/04/12 03:36:15;;;;;;;13.32;6.68;;;;;;;;;;4963719;28;20030;-81
2022/04/12 03:38:48;;;;;;;20.67;6.45;;;;;;;;;;4958965;28;21846;-81
2022/04/12 03:41:15;;;;;;;14.55;6.85;;;;;;;;;;4964271;28;20034;-81
2022/04/12 03:43:41;;;;;;;15.35;6.75;;;;;;;;;;4982675;28;20034;-81
2022/04/12 03:46:07;;;;;;;11.05;6.47;;;;;;;;;;4968608;28;20030;-81
2022/04/12 03:48:33;;;;;;;12.60;6.38;;;;;;;;;;4965953;28;20035;-81
2022/04/12 03:50:59;;;;;;;10.63;5.82;;;;;;;;;;4965072;28;20034;-82
2022/04/12 03:53:25;;;;;;;13.73;6.15;;;;;;;;;;4976832;28;20100;-81
2022/04/12 03:55:51;;;;;;;15.43;6.50;;;;;;;;;;4963973;28;20549;-81
2022/04/12 03:58:19;;;;;;;12.07;6.55;;;;;;;;;;4979231;28;20474;-81
2022/04/12 04:00:45;;;;;;;14.38;6.93;;;;;;;;;;4984261;28;20022;-81
2022/04/12 04:03:11;;;;;;;15.98;6.80;;;;;;;;;;4980550;28;20583;-81
2022/04/12 04:05:37;;;;;;;18.10;8.55;;;;;;;;;;4963178;28;20030;-81
2022/04/12 04:08:04;;;;;;;13.25;7.63;;;;;;;;;;4978835;28;20035;-81
2022/04/12 04:10:30;;;;;;;15.63;6.75;;;;;;;;;;4965485;28;20061;-81
2022/04/12 04:12:56;;;;;;;12.90;7.03;;;;;;;;;;4965266;28;20030;-81
2022/04/12 04:15:22;;;;;;;13.95;7.85;;;;;;;;;;4967466;28;20019;-81
2022/04/12 04:17:48;;;;;;;15.63;7.68;;;;;;;;;;4968087;28;20041;-81
2022/04/12 04:20:15;;;;;;;12.90;6.72;;;;;;;;;;4984204;28;20490;-81
2022/04/12 04:22:42;;;;;;;10.43;6.03;;;;;;;;;;4984070;28;20030;-81
2022/04/12 04:25:09;;;;;;;15.95;6.70;;;;;;;;;;4965146;28;20038;-81
2022/04/12 04:27:35;;;;;;;10.88;6.43;;;;;;;;;;4965686;28;20038;-81
2022/04/12 04:30:03;;;;;;;15.10;7.63;;;;;;;;;;4967664;28;20681;-81
2022/04/12 04:32:29;;;;;;;15.02;7.10;;;;;;;;;;4970608;28;20058;-81
2022/04/12 04:34:55;;;;;;;18.63;8.35;;;;;;;;;;4981556;28;20325;-81
2022/04/12 04:37:21;;;;;;;15.50;7.28;;;;;;;;;;4979888;28;20110;-81
2022/04/12 04:39:47;;;;;;;18.30;7.88;;;;;;;;;;4964485;28;20545;-81
2022/04/12 04:42:14;;;;;;;19.67;7.63;;;;;;;;;;4978329;28;20030;-81
2022/04/12 04:44:40;;;;;;;18.80;7.72;;;;;;;;;;4962077;28;20560;-81
2022/04/12 04:47:06;;;;;;;14.48;7.65;;;;;;;;;;4981621;28;20129;-81
2022/04/12 04:49:32;;;;;;;15.77;7.13;;;;;;;;;;4964471;28;20034;-81
2022/04/12 04:51:58;;;;;;;17.50;8.07;;;;;;;;;;4963590;28;20639;-81
2022/04/12 04:54:24;;;;;;;14.48;8.52;;;;;;;;;;4966140;28;20035;-81
2022/04/12 04:56:51;;;;;;;15.65;8.70;;;;;;;;;;4983315;28;20038;-81
2022/04/12 04:59:17;;;;;;;17.65;7.90;;;;;;;;;;4979904;28;20482;-81
2022/04/12 05:01:43;;;;;;;15.73;8.48;;;;;;;;;;4980749;28;20118;-81
2022/04/12 05:04:09;;;;;;;23.15;8.57;;;;;;;;;;4970623;28;20116;-81
2022/04/12 05:06:35;;;;;;;17.75;8.55;;;;;;;;;;4978772;28;20030;-81
2022/04/12 05:09:01;;;;;;;18.30;8.07;;;;;;;;;;4985045;28;20940;-81
2022/04/12 05:11:27;;;;;;;13.32;7.75;;;;;;;;;;4969390;28;20030;-81
2022/04/12 05:13:55;;;;;;;14.07;7.13;;;;;;;;;;4968584;28;20055;-81
2022/04/12 05:16:21;;;;;;;19.27;8.38;;;;;;;;;;4964315;28;20406;-81
2022/04/12 05:18:47;;;;;;;17.52;8.25;;;;;;;;;;4982070;28;20483;-81
2022/04/12 05:21:13;;;;;;;17.20;8.88;;;;;;;;;;4967420;28;20049;-81
2022/04/12 05:23:39;;;;;;;22.13;8.02;;;;;;;;;;4970257;28;20038;-81
2022/04/12 05:26:05;;;;;;;13.10;7.53;;;;;;;;;;4963945;28;20506;-81
2022/04/12 05:28:31;;;;;;;16.05;7.35;;;;;;;;;;4970316;28;20063;-81
2022/04/12 05:30:57;;;;;;;13.23;7.53;;;;;;;;;;4974157;28;20069;-81
2022/04/12 05:33:23;;;;;;;19.98;7.72;;;;;;;;;;4969348;28;20520;-81
2022/04/12 05:35:49;;;;;;;13.57;7.22;;;;;;;;;;4980011;28;20026;-81
2022/04/12 05:38:15;;;;;;;17.98;9.32;;;;;;;;;;4981269;28;20033;-81
2022/04/12 05:40:41;;;;;;;13.77;7.28;;;;;;;;;;4972871;28;20031;-81
2022/04/12 05:43:07;;;;;;;16.90;7.90;;;;;;;;;;4981216;28;20096;-81
2022/04/12 05:45:33;;;;;;;17.83;8.38;;;;;;;;;;4966606;28;20031;-81
2022/04/12 05:48:00;;;;;;;13.00;6.50;;;;;;;;;;4980921;28;20392;-81
2022/04/12 05:50:27;;;;;;;14.60;7.25;;;;;;;;;;4966756;28;20069;-81
2022/04/12 05:52:54;;;;;;;12.80;6.45;;;;;;;;;;4968624;28;20056;-80
2022/04/12 05:55:21;;;;;;;14.48;6.45;;;;;;;;;;4981299;28;20486;-81
2022/04/12 05:57:50;;;;;;;16.15;7.53;;;;;;;;;;4966829;28;20470;-80
2022/04/12 06:00:16;;;;;;;17.92;7.68;;;;;;;;;;4967335;28;20490;-81
2022/04/12 06:02:42;;;;;;;12.10;7.25;;;;;;;;;;4980445;28;20061;-80
2022/04/12 06:05:09;;;;;;;13.27;7.45;;;;;;;;;;4980184;28;20063;-82
2022/04/12 06:07:36;;;;;;;17.77;7.03;;;;;;;;;;4967482;28;20039;-81
2022/04/12 06:10:02;;;;;;;16.55;8.77;;;;;;;;;;4968819;28;20409;-81
2022/04/12 06:12:29;;;;;;;18.90;7.53;;;;;;;;;;4985273;28;20040;-81
2022/04/12 06:14:55;;;;;;;14.27;7.40;;;;;;;;;;4985356;28;20535;-81
2022/04/12 06:17:22;;;;;;;12.50;7.00;;;;;;;;;;4983064;28;20022;-81
2022/04/12 06:19:48;;;;;;;17.73;7.28;;;;;;;;;;4969340;28;20033;-81
2022/04/12 06:22:14;;;;;;;16.25;7.75;;;;;;;;;;4987756;28;20026;-81
2022/04/12 06:24:42;;;;;;;14.88;7.55;;;;;;;;;;4979590;28;20034;-81
2022/04/12 06:27:08;;;;;;;19.52;7.28;;;;;;;;;;4986934;28;20474;-81
2022/04/12 06:29:34;;;;;;;14.68;7.43;;;;;;;;;;4980685;28;20101;-81
2022/04/12 06:32:00;;;;;;;14.00;7.38;;;;;;;;;;4981621;28;20030;-81
2022/04/12 06:34:26;;;;;;;13.43;7.13;;;;;;;;;;4965008;28;20030;-81
2022/04/12 06:36:52;;;;;;;23.30;7.82;;;;;;;;;;4987299;28;20031;-81
2022/04/12 06:39:18;;;;;;;13.10;7.82;;;;;;;;;;4979483;28;20105;-81
2022/04/12 06:41:44;;;;;;;23.92;8.15;;;;;;;;;;4979777;28;20053;-81
2022/04/12 06:44:10;;;;;;;13.82;7.45;;;;;;;;;;4979508;28;20034;-81
2022/04/12 06:46:36;;;;;;;16.52;7.32;;;;;;;;;;4966741;28;20481;-81
2022/04/12 06:49:02;;;;;;;12.43;7.55;;;;;;;;;;4980491;28;20042;-81
2022/04/12 06:51:28;;;;;;;14.18;7.22;;;;;;;;;;4978498;28;20030;-81
2022/04/12 06:53:54;;;;;;;14.82;7.43;;;;;;;;;;4979385;28;20037;-81
2022/04/12 06:56:20;;;;;;;19.67;8.70;;;;;;;;;;4964993;28;20035;-81
2022/04/12 06:58:46;;;;;;;16.10;7.95;;;;;;;;;;4962632;28;20030;-81
2022/04/12 07:01:12;;;;;;;14.65;8.00;;;;;;;;;;4964264;28;20490;-82
2022/04/12 07:03:38;;;;;;;18.40;8.07;;;;;;;;;;4963578;28;20053;-81
2022/04/12 07:06:04;;;;;;;15.80;7.47;;;;;;;;;;4966593;28;20033;-81
2022/04/12 07:08:37;;;;;;;13.27;7.85;;;;;;;;;;4961113;28;20038;-81
2022/04/12 07:11:03;;;;;;;14.45;7.45;;;;;;;;;;4978277;28;20031;-81
2022/04/12 07:13:29;;;;;;;14.18;8.20;;;;;;;;;;4981924;28;20033;-81
2022/04/12 07:15:55;;;;;;;15.13;7.50;;;;;;;;;;4966073;28;20069;-81
2022/04/12 07:18:27;;;;;;;16.38;8.32;;;;;;;;;;4965257;28;20414;-81
2022/04/12 07:20:54;;;;;;;14.70;7.82;;;;;;;;;;4977930;28;20045;-81
2022/04/12 07:23:20;;;;;;;21.00;8.43;;;;;;;;;;4963857;28;20092;-81
2022/04/12 07:25:46;;;;;;;16.58;7.60;;;;;;;;;;4961433;28;20590;-81
2022/04/12 07:28:12;;;;;;;15.13;7.60;;;;;;;;;;4979781;28;20114;-81
2022/04/12 07:30:38;;;;;;;17.38;7.72;;;;;;;;;;4968451;28;20038;-81
2022/04/12 07:33:04;;;;;;;14.70;6.95;;;;;;;;;;4962523;28;20049;-81
2022/04/12 07:35:30;;;;;;;16.10;8.45;;;;;;;;;;4967617;28;20034;-81
2022/04/12 07:37:57;;;;;;;12.68;7.25;;;;;;;;;;4976402;28;20038;-81
2022/04/12 07:40:23;;;;;;;16.35;7.53;;;;;;;;;;4965102;28;20034;-81
2022/04/12 07:42:49;;;;;;;16.38;7.78;;;;;;;;;;4984229;28;20088;-81
2022/04/12 07:45:15;;;;;;;11.95;7.10;;;;;;;;;;4964886;28;20564;-81
2022/04/12 07:47:41;;;;;;;15.55;8.35;;;;;;;;;;4965122;28;20142;-81
2022/04/12 07:50:07;;;;;;;15.63;7.60;;;;;;;;;;4961245;28;20038;-81
2022/04/12 07:52:33;;;;;;;13.32;8.10;;;;;;;;;;4983072;28;20121;-81
2022/04/12 07:54:59;;;;;;;11.65;6.35;;;;;;;;;;4966965;28;20034;-82
2022/04/12 07:57:27;;;;;;;14.13;7.88;;;;;;;;;;4974241;28;20686;-81
2022/04/12 07:59:53;;;;;;;13.30;7.15;;;;;;;;;;4976593;28;20027;-82
2022/04/12 08:02:19;;;;;;;13.30;7.88;;;;;;;;;;4965630;28;20084;-81
2022/04/12 08:04:45;;;;;;;14.23;7.47;;;;;;;;;;4980534;28;20141;-81
2022/04/12 08:07:11;;;;;;;12.77;7.68;;;;;;;;;;4978973;28;20432;-82
2022/04/12 08:09:37;;;;;;;15.10;7.53;;;;;;;;;;4971772;28;20031;-81
2022/04/12 08:12:04;;;;;;;14.88;7.10;;;;;;;;;;4967247;28;20064;-81
2022/04/12 08:14:30;;;;;;;15.80;8.00;;;;;;;;;;4958326;28;20038;-81
2022/04/12 08:16:56;;;;;;;14.70;7.72;;;;;;;;;;4966612;28;20038;-81
2022/04/12 08:19:22;;;;;;;17.45;7.78;;;;;;;;;;4960338;28;20033;-81
2022/04/12 08:21:48;;;;;;;18.45;8.05;;;;;;;;;;4968510;28;20954;-81
2022/04/12 08:24:14;;;;;;;16.08;7.85;;;;;;;;;;4963757;28;20050;-81
2022/04/12 08:26:40;;;;;;;14.88;7.70;;;;;;;;;;4976177;28;20042;-81
2022/04/12 08:29:07;;;;;;;15.75;7.43;;;;;;;;;;4958343;28;20038;-81
2022/04/12 08:31:33;;;;;;;18.58;7.75;;;;;;;;;;4961597;28;20123;-81
2022/04/12 08:33:59;;;;;;;16.23;8.38;;;;;;;;;;4983516;28;20124;-82
2022/04/12 08:36:25;;;;;;;14.38;7.63;;;;;;;;;;4965189;28;20440;-81
2022/04/12 08:38:51;;;;;;;14.60;7.25;;;;;;;;;;4981938;28;20449;-81
2022/04/12 08:41:19;;;;;;;13.27;8.05;;;;;;;;;;4968589;28;20039;-81
2022/04/12 08:43:45;;;;;;;16.48;7.78;;;;;;;;;;4966665;28;20121;-82
2022/04/12 08:46:25;;;;;;;18.23;7.40;;;;;;;;;;4981704;28;20058;-81
2022/04/12 08:48:56;;;;;;;14.52;8.05;;;;;;;;;;4957191;28;20035;-81
2022/04/12 08:51:22;;;;;;;15.02;7.32;;;;;;;;;;4943904;28;23390;-81
2022/04/12 08:53:50;;;;;;;13.25;8.50;;;;;;;;;;4946486;28;20063;-81
2022/04/12 08:56:17;;;;;;;15.52;8.95;;;;;;;;;;4949984;28;20077;-81
2022/04/12 08:58:43;;;;;;;12.48;8.02;;;;;;;;;;4960393;28;20493;-81
2022/04/12 09:01:09;;;;;;;14.38;7.40;;;;;;;;;;4944045;28;20120;-81
2022/04/12 09:03:35;;;;;;;14.57;7.80;;;;;;;;;;4966257;28;20089;-81
2022/04/12 09:06:01;;;;;;;13.43;8.23;;;;;;;;;;4964425;28;20434;-81
2022/04/12 09:08:28;;;;;;;13.90;8.07;;;;;;;;;;4946068;28;20121;-81
2022/04/12 09:10:58;;;;;;;13.02;8.05;;;;;;;;;;4946912;28;20545;-81
2022/04/12 09:13:24;;;;;;;16.65;8.05;;;;;;;;;;4947174;28;20114;-81
2022/04/12 09:15:51;;;;;;;13.40;7.32;;;;;;;;;;4954665;28;20479;-81
2022/04/12 09:18:37;;;;;;;13.00;8.52;;;;;;;;;;4944670;28;20035;-81
2022/04/12 09:21:14;;;;;;;16.52;8.93;;;;;;;;;;4946942;28;20043;-81
2022/04/12 09:23:47;;;;;;;14.88;8.00;;;;;;;;;;4944639;28;20041;-81
2022/04/12 09:26:17;;;;;;;13.20;7.93;;;;;;;;;;4944253;28;20046;-81
2022/04/12 09:28:44;;;;;;;17.05;9.02;;;;;;;;;;4939780;28;23342;-81
2022/04/12 09:31:13;;;;;;;12.80;8.00;;;;;;;;;;4964863;28;20023;-81
2022/04/12 09:33:41;;;;;;;15.05;9.45;;;;;;;;;;4960095;28;20034;-81
2022/04/12 09:36:08;;;;;;;13.13;8.55;;;;;;;;;;4965799;28;20106;-81
2022/04/12 09:38:34;;;;;;;13.23;8.45;;;;;;;;;;4962335;28;20031;-81
2022/04/12 09:41:13;;;;;;;16.30;8.40;;;;;;;;;;4962050;28;20030;-81
2022/04/12 09:44:05;;;;;;;13.55;8.90;;;;;;;;;;4947354;28;20085;-81
2022/04/12 09:46:35;;;;;;;14.88;8.75;;;;;;;;;;4949152;28;20027;-82
2022/04/12 09:49:01;;;;;;;15.57;8.10;;;;;;;;;;4982841;28;20430;-81
2022/04/12 09:51:27;;;;;;;13.85;8.80;;;;;;;;;;4966156;28;20041;-81
2022/04/12 09:53:53;;;;;;;17.48;8.85;;;;;;;;;;4968485;28;20498;-81
2022/04/12 09:56:21;;;;;;;16.00;8.27;;;;;;;;;;4969017;28;20406;-81
2022/04/12 09:58:48;;;;;;;16.60;9.25;;;;;;;;;;4975689;28;20015;-81
2022/04/12 10:01:15;;;;;;;15.90;9.30;;;;;;;;;;4964092;28;20062;-81
2022/04/12 10:03:44;;;;;;;13.85;8.43;;;;;;;;;;4986728;28;20153;-81
2022/04/12 10:06:10;;;;;;;13.80;8.30;;;;;;;;;;4980487;28;20038;-81
2022/04/12 10:08:37;;;;;;;15.63;9.05;;;;;;;;;;4976618;28;20521;-81
2022/04/12 10:11:03;;;;;;;16.52;8.55;;;;;;;;;;4980897;28;20061;-81
2022/04/12 10:13:30;;;;;;;14.05;8.95;;;;;;;;;;4967078;28;20535;-81
2022/04/12 10:15:56;;;;;;;16.75;8.30;;;;;;;;;;4954925;28;20038;-81
2022/04/12 10:18:22;;;;;;;13.60;7.97;;;;;;;;;;4983782;28;20433;-81
2022/04/12 10:20:48;;;;;;;15.00;8.88;;;;;;;;;;4974827;28;20042;-81
2022/04/12 10:23:20;;;;;;;14.35;9.38;;;;;;;;;;4979204;28;21373;-81
2022/04/12 10:25:51;;;;;;;16.45;8.32;;;;;;;;;;4975057;28;20054;-81
2022/04/12 10:28:18;;;;;;;17.40;9.45;;;;;;;;;;4980547;28;20545;-81
2022/04/12 10:30:45;;;;;;;15.68;9.38;;;;;;;;;;4979989;28;20038;-81
2022/04/12 10:33:26;;;;;;;13.05;7.78;;;;;;;;;;4975431;28;20053;-81
2022/04/12 10:35:54;;;;;;;14.65;8.02;;;;;;;;;;4963903;28;20038;-81
2022/04/12 10:38:20;;;;;;;15.15;8.90;;;;;;;;;;4982472;28;20030;-81
2022/04/12 10:40:48;;;;;;;16.83;9.15;;;;;;;;;;4964183;28;20227;-81
2022/04/12 10:43:15;;;;;;;16.45;8.88;;;;;;;;;;4965447;28;20030;-81
2022/04/12 10:45:48;;;;;;;16.63;8.73;;;;;;;;;;4973879;28;20098;-81
2022/04/12 10:48:22;;;;;;;18.67;10.10;;;;;;;;;;4965687;28;20133;-81
2022/04/12 10:50:51;;;;;;;12.82;7.55;;;;;;;;;;4972257;28;20035;-82
2022/04/12 10:53:37;;;;;;;12.90;8.02;;;;;;;;;;4964473;28;20435;-81
2022/04/12 10:56:09;;;;;;;12.68;8.18;;;;;;;;;;4973970;28;20127;-81
2022/04/12 10:58:36;;;;;;;12.80;8.55;;;;;;;;;;4961795;28;20030;-81
2022/04/12 11:01:02;;;;;;;17.92;9.63;;;;;;;;;;4984380;28;20505;-81
2022/04/12 11:03:41;;;;;;;18.13;8.57;;;;;;;;;;4968823;28;20496;-81
2022/04/12 11:06:10;;;;;;;18.33;9.50;;;;;;;;;;4987929;28;20699;-81
2022/04/12 11:08:36;;;;;;;13.57;8.90;;;;;;;;;;4969515;28;20026;-81
2022/04/12 11:11:06;;;;;;;15.43;8.75;;;;;;;;;;4980396;28;20042;-81
2022/04/12 11:13:33;;;;;;;13.80;9.18;;;;;;;;;;4965324;28;20121;-81
2022/04/12 11:16:09;;;;;;;14.48;9.18;;;;;;;;;;4963638;28;20037;-81
2022/04/12 11:18:52;;;;;;;12.90;8.82;;;;;;;;;;4977058;28;20093;-81
2022/04/12 11:21:19;;;;;;;13.38;8.57;;;;;;;;;;4990841;28;20556;-81
2022/04/12 11:23:46;;;;;;;13.73;8.77;;;;;;;;;;4983285;28;20112;-81
2022/04/12 11:26:31;;;;;;;14.68;8.65;;;;;;;;;;4971936;28;20064;-81
2022/04/12 11:28:57;;;;;;;16.50;9.57;;;;;;;;;;4962894;28;20338;-81
2022/04/12 11:31:23;;;;;;;16.20;9.02;;;;;;;;;;4965936;28;20501;-81
2022/04/12 11:33:49;;;;;;;13.50;9.55;;;;;;;;;;4980341;28;20034;-82
2022/04/12 11:36:19;;;;;;;14.77;8.48;;;;;;;;;;4966382;28;20026;-82
2022/04/12 11:38:45;;;;;;;16.50;9.13;;;;;;;;;;4979412;28;20018;-81
2022/04/12 11:41:11;;;;;;;15.48;9.43;;;;;;;;;;4980296;28;20093;-81
2022/04/12 11:43:37;;;;;;;15.65;8.90;;;;;;;;;;4978004;28;20039;-81
2022/04/12 11:46:03;;;;;;;15.30;9.77;;;;;;;;;;4986059;28;20033;-81
2022/04/12 11:48:30;;;;;;;16.17;8.70;;;;;;;;;;4966804;28;20054;-81
2022/04/12 11:50:57;;;;;;;15.25;9.68;;;;;;;;;;4966234;28;20564;-81
2022/04/12 11:53:24;;;;;;;15.90;9.20;;;;;;;;;;4980814;28;20078;-82
2022/04/12 11:55:50;;;;;;;17.65;9.50;;;;;;;;;;4966700;28;20035;-81
2022/04/12 11:58:20;;;;;;;15.93;9.25;;;;;;;;;;4963024;28;20149;-81
2022/04/12 12:00:46;;;;;;;12.55;8.65;;;;;;;;;;4965050;28;20041;-81
2022/04/12 12:03:16;;;;;;;13.38;9.18;;;;;;;;;;4975473;28;20042;-81
2022/04/12 12:05:42;;;;;;;13.13;8.88;;;;;;;;;;4981999;28;20116;-81
2022/04/12 12:08:10;;;;;;;13.02;8.88;;;;;;;;;;4968414;28;20034;-81
2022/04/12 12:10:36;;;;;;;12.93;8.70;;;;;;;;;;4988464;28;20026;-81
2022/04/12 12:13:05;;;;;;;16.55;9.25;;;;;;;;;;4971585;28;20042;-82
2022/04/12 12:15:33;;;;;;;19.10;9.32;;;;;;;;;;4984343;28;20367;-81
2022/04/12 12:18:06;;;;;;;15.23;8.65;;;;;;;;;;4970907;28;20030;-81
2022/04/12 12:20:37;;;;;;;15.35;8.05;;;;;;;;;;4966129;28;20034;-81
2022/04/12 12:23:08;;;;;;;14.77;8.82;;;;;;;;;;4981997;28;20026;-81
2022/04/12 12:25:46;;;;;;;17.15;9.18;;;;;;;;;;4988143;28;20058;-81
2022/04/12 12:28:14;;;;;;;13.10;8.95;;;;;;;;;;4986159;28;20061;-81
2022/04/12 12:30:41;;;;;;;14.23;9.10;;;;;;;;;;4979946;28;20040;-81
2022/04/12 12:33:07;;;;;;;15.23;7.93;;;;;;;;;;4982382;28;20031;-82
2022/04/12 12:35:33;;;;;;;17.80;9.38;;;;;;;;;;4979472;28;20034;-82
2022/04/12 12:38:07;;;;;;;18.85;9.95;;;;;;;;;;4986523;28;20022;-81
2022/04/12 12:40:33;;;;;;;15.50;9.80;;;;;;;;;;4981215;28;20565;-81
2022/04/12 12:43:01;;;;;;;14.60;8.77;;;;;;;;;;4986962;28;20027;-81
2022/04/12 12:45:27;;;;;;;17.25;8.95;;;;;;;;;;4985311;28;20041;-81
2022/04/12 12:47:54;;;;;;;19.30;9.20;;;;;;;;;;4963646;28;20038;-81
2022/04/12 12:50:21;;;;;;;15.25;9.27;;;;;;;;;;4949118;28;20031;-81
2022/04/12 12:52:47;;;;;;;13.35;8.57;;;;;;;;;;4948596;28;20040;-81
2022/04/12 12:55:15;;;;;;;13.68;8.18;;;;;;;;;;4961680;28;20027;-81
2022/04/12 12:57:48;;;;;;;15.23;8.40;;;;;;;;;;4947313;28;20034;-82
2022/04/12 13:00:16;;;;;;;11.13;7.55;;;;;;;;;;4965256;28;20033;-82
2022/04/12 13:02:42;;;;;;;16.17;9.27;;;;;;;;;;4947101;29;20042;-82
2022/04/12 13:05:09;;;;;;;14.65;9.20;;;;;;;;;;4962859;28;20026;-81
2022/04/12 13:07:36;;;;;;;13.43;8.32;;;;;;;;;;4949629;28;20050;-81
2022/04/12 13:10:07;;;;;;;14.82;8.80;;;;;;;;;;4964700;28;20109;-81
2022/04/12 13:12:33;;;;;;;19.92;10.00;;;;;;;;;;4962243;28;20178;-81
2022/04/12 13:14:59;;;;;;;14.95;8.38;;;;;;;;;;4960813;28;20106;-81
2022/04/12 13:17:25;;;;;;;16.83;9.55;;;;;;;;;;4962480;28;20301;-81
2022/04/12 13:19:51;;;;;;;18.92;10.13;;;;;;;;;;4944724;28;20057;-81
2022/04/12 13:22:18;;;;;;;18.20;9.57;;;;;;;;;;4947876;28;20641;-81
2022/04/12 13:24:44;;;;;;;20.45;10.18;;;;;;;;;;4946069;28;20652;-81
2022/04/12 13:27:10;;;;;;;16.98;9.45;;;;;;;;;;4963897;28;20625;-81
2022/04/12 13:29:36;;;;;;;17.73;10.15;;;;;;;;;;4962378;28;20027;-81
2022/04/12 13:32:02;;;;;;;19.48;10.15;;;;;;;;;;4943585;28;20811;-81
2022/04/12 13:34:28;;;;;;;22.15;11.15;;;;;;;;;;4943871;28;20285;-81
2022/04/12 13:36:55;;;;;;;21.63;10.00;;;;;;;;;;4949662;28;20031;-81
2022/04/12 13:39:20;;;;;;;19.70;10.38;;;;;;;;;;4944687;28;20135;-81
2022/04/12 13:41:48;;;;;;;24.95;11.73;;;;;;;;;;4946865;28;20523;-81
2022/04/12 13:44:15;;;;;;;15.13;9.27;;;;;;;;;;4954994;28;20066;-81
2022/04/12 13:46:41;;;;;;;19.90;9.85;;;;;;;;;;4945911;28;20288;-81
2022/04/12 13:49:07;;;;;;;23.05;10.13;;;;;;;;;;4968121;28;20061;-81
2022/04/12 13:51:33;;;;;;;18.83;9.35;;;;;;;;;;4977273;28;20038;-82
2022/04/12 13:54:00;;;;;;;20.75;10.45;;;;;;;;;;4981369;28;20082;-81
2022/04/12 13:56:26;;;;;;;24.38;10.73;;;;;;;;;;4967315;28;20394;-81
2022/04/12 13:58:52;;;;;;;30.42;10.30;;;;;;;;;;4971669;28;20034;-81
2022/04/12 14:01:18;;;;;;;22.23;10.68;;;;;;;;;;4967799;28;20034;-81
2022/04/12 14:03:44;;;;;;;17.63;8.43;;;;;;;;;;4969242;28;20035;-81
2022/04/12 14:06:10;;;;;;;20.83;10.60;;;;;;;;;;4973165;28;20127;-81
2022/04/12 14:08:36;;;;;;;20.25;10.85;;;;;;;;;;4966673;28;20045;-81
2022/04/12 14:11:03;;;;;;;18.95;9.75;;;;;;;;;;4984142;28;20030;-81
2022/04/12 14:13:29;;;;;;;21.38;10.98;;;;;;;;;;4986228;28;20034;-81
2022/04/12 14:15:56;;;;;;;20.70;10.35;;;;;;;;;;4980907;28;20514;-81
2022/04/12 14:18:22;;;;;;;21.02;11.50;;;;;;;;;;4962761;28;20502;-81
2022/04/12 14:20:48;;;;;;;20.73;10.95;;;;;;;;;;4981041;28;20034;-81
2022/04/12 14:23:14;;;;;;;20.80;10.35;;;;;;;;;;4963294;28;20330;-81
2022/04/12 14:25:40;;;;;;;21.10;10.82;;;;;;;;;;4969585;28;20041;-81
2022/04/12 14:28:08;;;;;;;22.17;10.95;;;;;;;;;;4966782;28;20034;-81
2022/04/12 14:30:34;;;;;;;21.20;10.43;;;;;;;;;;4984116;28;20030;-81
2022/04/12 14:33:02;;;;;;;25.85;11.27;;;;;;;;;;4985142;28;20483;-81